Time;durP1;ratioP1;P1;durP2;ratioP2;P2;SDS_P1;SDS_P2;PMS_P1;PMS_P2;Temp;Humidity;BMP_temperature;BMP_pressure;BME280_temperature;BME280_humidity;BME280_pressure;Samples;Min_cycle;Max_cycle;Signal;HPM_P1;HPM_P2
2022/02/19 00:00:57;;;;;;;3.23;1.87;;;25.70;57.50;;;;;;5055514;28;20959;-82
2022/02/19 00:03:24;;;;;;;1.97;1.77;;;25.60;57.50;;;;;;5055380;28;20440;-82
2022/02/19 00:05:51;;;;;;;2.10;1.60;;;25.60;57.40;;;;;;5055693;28;20437;-94
2022/02/19 00:08:17;;;;;;;1.60;1.40;;;25.50;57.50;;;;;;5055264;28;20442;-81
2022/02/19 00:10:45;;;;;;;2.10;1.70;;;25.60;57.50;;;;;;5055344;28;20445;-81
2022/02/19 00:13:13;;;;;;;2.17;1.40;;;25.50;57.50;;;;;;5055280;28;20441;-81
2022/02/19 00:15:40;;;;;;;2.43;1.47;;;25.50;57.50;;;;;;5055328;28;20774;-95
2022/02/19 00:18:06;;;;;;;2.53;1.60;;;25.50;57.60;;;;;;5055126;28;20445;-81
2022/02/19 00:20:33;;;;;;;2.53;1.43;;;25.50;57.50;;;;;;5055217;28;20442;-81
2022/02/19 00:23:00;;;;;;;3.17;1.60;;;25.60;57.50;;;;;;5055065;28;21017;-83
2022/02/19 00:25:27;;;;;;;2.13;1.63;;;25.50;57.40;;;;;;5054901;28;20489;-93
2022/02/19 00:27:54;;;;;;;2.57;1.80;;;25.40;57.40;;;;;;5055133;28;20449;-81
2022/02/19 00:30:22;;;;;;;3.33;1.67;;;25.40;57.50;;;;;;5055138;28;20438;-93
2022/02/19 00:32:49;;;;;;;2.27;1.50;;;25.50;57.60;;;;;;5055010;28;20442;-81
2022/02/19 00:35:18;;;;;;;2.13;1.37;;;25.40;57.70;;;;;;5055272;28;20846;-81
2022/02/19 00:37:45;;;;;;;3.67;1.70;;;25.40;57.60;;;;;;5055291;28;20559;-81
2022/02/19 00:40:12;;;;;;;1.60;1.30;;;25.50;57.60;;;;;;5054976;28;20445;-94
2022/02/19 00:42:39;;;;;;;3.30;1.20;;;25.40;57.40;;;;;;5055002;28;20438;-94
2022/02/19 00:45:08;;;;;;;2.27;1.23;;;25.50;57.30;;;;;;5066342;28;20503;-82
2022/02/19 00:47:36;;;;;;;2.53;1.60;;;25.40;57.50;;;;;;5069323;28;20450;-81
2022/02/19 00:50:03;;;;;;;2.90;1.80;;;25.40;57.50;;;;;;5068597;28;20623;-81
2022/02/19 00:52:29;;;;;;;4.30;1.83;;;25.30;57.30;;;;;;5058492;28;20445;-94
2022/02/19 00:54:57;;;;;;;2.57;1.60;;;25.40;57.40;;;;;;5055565;28;20557;-92
2022/02/19 00:57:24;;;;;;;1.50;1.27;;;25.40;57.30;;;;;;5055245;28;20436;-85
2022/02/19 00:59:51;;;;;;;2.03;1.10;;;25.40;57.40;;;;;;5054599;28;20916;-94
2022/02/19 01:02:17;;;;;;;2.13;1.43;;;25.30;57.30;;;;;;5054754;28;20441;-89
2022/02/19 01:04:46;;;;;;;1.27;1.07;;;25.30;57.40;;;;;;5054498;28;20892;-81
2022/02/19 01:07:12;;;;;;;2.57;1.50;;;25.30;57.40;;;;;;5054475;28;20438;-94
2022/02/19 01:09:39;;;;;;;1.70;1.20;;;25.30;57.30;;;;;;5055196;28;20444;-94
2022/02/19 01:12:07;;;;;;;2.23;1.30;;;25.30;57.50;;;;;;5063262;28;20438;-80
2022/02/19 01:14:33;;;;;;;1.50;1.30;;;25.20;57.40;;;;;;5061176;28;20466;-82
2022/02/19 01:17:00;;;;;;;2.67;1.50;;;25.20;57.40;;;;;;5054685;28;20448;-81
2022/02/19 01:19:27;;;;;;;2.50;1.30;;;25.30;57.40;;;;;;5054187;28;20441;-81
2022/02/19 01:21:55;;;;;;;2.23;1.17;;;25.30;57.20;;;;;;5054173;28;20796;-94
2022/02/19 01:24:22;;;;;;;2.43;1.50;;;25.30;57.30;;;;;;5054001;28;21027;-94
2022/02/19 01:26:48;;;;;;;2.80;1.37;;;25.30;57.10;;;;;;5053964;28;20470;-80
2022/02/19 01:29:15;;;;;;;1.70;1.53;;;25.20;57.20;;;;;;5054094;28;20448;-92
2022/02/19 01:31:42;;;;;;;2.20;1.57;;;25.20;57.30;;;;;;5053971;28;20445;-81
2022/02/19 01:34:09;;;;;;;3.30;1.40;;;25.20;57.20;;;;;;5053889;28;20445;-95
2022/02/19 01:36:37;;;;;;;1.77;1.27;;;25.30;57.20;;;;;;5053769;28;20468;-93
2022/02/19 01:39:05;;;;;;;2.53;1.57;;;25.20;57.00;;;;;;5053852;28;20446;-80
2022/02/19 01:41:32;;;;;;;1.40;1.00;;;25.20;57.30;;;;;;5054158;28;20924;-94
2022/02/19 01:44:05;;;;;;;1.67;1.00;;;25.20;57.20;;;;;;5053798;28;20465;-92
2022/02/19 01:46:31;;;;;;;1.97;1.40;;;25.20;57.00;;;;;;5054054;28;20442;-94
2022/02/19 01:49:00;;;;;;;1.57;1.00;;;25.20;57.20;;;;;;5053593;28;20504;-89
2022/02/19 01:51:30;;;;;;;1.80;1.33;;;25.30;57.00;;;;;;5053983;28;20445;-95
2022/02/19 01:53:57;;;;;;;1.90;1.40;;;25.30;57.00;;;;;;5053771;28;20967;-81
2022/02/19 01:56:25;;;;;;;1.90;1.70;;;25.20;57.20;;;;;;5053555;28;21002;-84
2022/02/19 01:58:53;;;;;;;5.20;1.40;;;25.20;56.90;;;;;;5053774;28;20445;-94
2022/02/19 02:01:20;;;;;;;2.80;1.30;;;25.20;57.00;;;;;;5052744;28;20441;-82
2022/02/19 02:03:47;;;;;;;2.87;1.40;;;25.20;56.90;;;;;;5053605;28;20524;-93
2022/02/19 02:06:14;;;;;;;1.70;1.20;;;25.10;57.10;;;;;;5053688;28;20817;-81
2022/02/19 02:08:41;;;;;;;2.63;1.30;;;25.00;57.00;;;;;;5053489;28;20778;-95
2022/02/19 02:11:08;;;;;;;1.70;1.30;;;25.10;57.10;;;;;;5053359;28;20441;-95
2022/02/19 02:13:36;;;;;;;2.70;1.50;;;25.10;56.90;;;;;;5053166;28;20519;-81
2022/02/19 02:16:03;;;;;;;1.90;1.53;;;25.10;56.90;;;;;;5053425;28;20449;-81
2022/02/19 02:18:30;;;;;;;3.17;1.47;;;25.00;56.90;;;;;;5053478;28;20442;-93
2022/02/19 02:20:57;;;;;;;1.80;1.20;;;25.10;57.10;;;;;;5053319;28;20433;-95
2022/02/19 02:23:25;;;;;;;1.40;1.13;;;25.00;56.90;;;;;;5053364;28;20441;-88
2022/02/19 02:25:53;;;;;;;1.50;1.20;;;25.00;56.90;;;;;;5053127;28;20485;-81
2022/02/19 02:28:20;;;;;;;1.80;1.20;;;25.00;56.80;;;;;;5053568;28;20450;-95
2022/02/19 02:30:47;;;;;;;1.30;1.17;;;25.10;56.80;;;;;;5053710;28;20441;-81
2022/02/19 02:33:17;;;;;;;1.70;1.30;;;25.00;56.90;;;;;;5053375;28;20456;-86
2022/02/19 02:35:44;;;;;;;1.83;1.03;;;25.00;56.80;;;;;;5055422;28;20909;-85
2022/02/19 02:38:10;;;;;;;2.23;1.27;;;25.00;56.80;;;;;;5054191;28;20434;-95
2022/02/19 02:40:39;;;;;;;3.17;1.13;;;25.10;56.90;;;;;;5053481;28;20947;-92
2022/02/19 02:43:06;;;;;;;2.90;1.20;;;25.10;56.90;;;;;;5053238;28;20438;-81
2022/02/19 02:45:33;;;;;;;1.40;1.20;;;25.00;56.80;;;;;;5053158;28;21003;-94
2022/02/19 02:47:59;;;;;;;1.93;1.27;;;25.00;56.80;;;;;;5053334;28;20932;-81
2022/02/19 02:50:26;;;;;;;1.57;1.20;;;25.00;56.90;;;;;;5053292;28;20818;-93
2022/02/19 02:52:53;;;;;;;1.57;1.23;;;25.10;56.80;;;;;;5053381;28;20461;-95
2022/02/19 02:55:20;;;;;;;1.23;0.93;;;25.00;56.80;;;;;;5052980;28;20473;-95
2022/02/19 02:57:48;;;;;;;1.30;0.93;;;25.00;56.80;;;;;;5053120;28;20951;-95
2022/02/19 03:00:16;;;;;;;1.70;1.27;;;25.10;56.80;;;;;;5052859;28;20442;-94
2022/02/19 03:02:43;;;;;;;1.63;1.20;;;25.00;56.80;;;;;;5053047;28;20473;-81
2022/02/19 03:05:13;;;;;;;1.10;0.90;;;25.00;56.70;;;;;;5053055;28;20485;-89
2022/02/19 03:07:40;;;;;;;3.53;1.70;;;25.00;56.70;;;;;;5052882;28;20443;-95
2022/02/19 03:10:08;;;;;;;1.47;1.27;;;25.00;56.90;;;;;;5052852;28;20786;-92
2022/02/19 03:12:35;;;;;;;1.90;1.10;;;25.00;56.80;;;;;;5054315;28;20437;-81
2022/02/19 03:15:04;;;;;;;2.17;1.10;;;25.00;56.80;;;;;;5056395;28;20454;-95
2022/02/19 03:17:36;;;;;;;1.93;1.13;;;25.00;56.70;;;;;;5056546;28;20790;-95
2022/02/19 03:20:04;;;;;;;1.53;1.03;;;25.00;56.60;;;;;;5056537;28;20838;-81
2022/02/19 03:22:30;;;;;;;1.50;1.10;;;25.00;56.80;;;;;;5056155;28;20441;-81
2022/02/19 03:24:57;;;;;;;1.20;1.10;;;25.00;56.80;;;;;;5056142;28;20972;-95
2022/02/19 03:27:26;;;;;;;1.10;0.90;;;25.00;56.70;;;;;;5056253;28;20446;-83
2022/02/19 03:29:53;;;;;;;2.50;1.70;;;25.00;56.70;;;;;;5056013;28;20528;-95
2022/02/19 03:32:21;;;;;;;2.40;1.00;;;25.00;56.70;;;;;;5056136;28;20442;-95
2022/02/19 03:34:48;;;;;;;2.63;1.10;;;24.90;57.30;;;;;;5056245;28;20449;-96
2022/02/19 03:37:15;;;;;;;1.73;1.07;;;24.90;56.70;;;;;;5055984;28;20442;-95
2022/02/19 03:39:41;;;;;;;1.53;0.93;;;24.90;56.70;;;;;;5055959;28;20438;-94
2022/02/19 03:42:09;;;;;;;1.43;1.20;;;24.90;56.60;;;;;;5055993;28;20445;-95
2022/02/19 03:44:35;;;;;;;1.60;1.10;;;25.00;56.70;;;;;;5055569;28;20457;-94
2022/02/19 03:47:02;;;;;;;1.40;1.20;;;24.90;56.60;;;;;;5056223;28;20446;-81
2022/02/19 03:49:30;;;;;;;1.30;0.83;;;24.90;56.60;;;;;;5055975;28;20442;-94
2022/02/19 03:51:57;;;;;;;1.60;1.13;;;25.00;56.60;;;;;;5055800;28;20441;-81
2022/02/19 03:54:24;;;;;;;1.70;1.10;;;24.90;57.20;;;;;;5055545;28;20438;-82
2022/02/19 03:56:51;;;;;;;2.33;1.17;;;24.90;56.60;;;;;;5055929;28;20445;-94
2022/02/19 03:59:18;;;;;;;2.07;1.10;;;24.90;56.60;;;;;;5055771;28;20806;-81
2022/02/19 04:01:45;;;;;;;1.40;1.00;;;24.90;56.60;;;;;;5055454;28;20928;-95
2022/02/19 04:04:12;;;;;;;2.07;1.30;;;24.90;56.70;;;;;;5055529;28;20446;-92
2022/02/19 04:06:40;;;;;;;1.43;1.00;;;25.00;56.60;;;;;;5055829;28;20477;-95
2022/02/19 04:09:07;;;;;;;2.20;1.30;;;24.90;56.50;;;;;;5055525;28;20451;-95
2022/02/19 04:11:33;;;;;;;2.27;1.10;;;24.80;56.40;;;;;;5055334;28;20446;-93
2022/02/19 04:14:00;;;;;;;2.50;1.37;;;24.80;56.40;;;;;;5055205;28;20469;-81
2022/02/19 04:16:28;;;;;;;1.40;1.10;;;25.00;56.60;;;;;;5055334;28;20951;-81
2022/02/19 04:18:55;;;;;;;2.00;1.03;;;24.80;56.50;;;;;;5055505;28;20445;-81
2022/02/19 04:21:22;;;;;;;1.53;1.00;;;24.80;56.60;;;;;;5055376;28;20453;-95
2022/02/19 04:23:50;;;;;;;1.27;1.10;;;24.80;56.50;;;;;;5054625;28;20959;-96
2022/02/19 04:26:16;;;;;;;1.67;1.20;;;24.80;56.50;;;;;;5055030;28;21003;-96
2022/02/19 04:28:43;;;;;;;1.53;1.00;;;24.80;56.50;;;;;;5055463;28;20444;-96
2022/02/19 04:31:10;;;;;;;1.03;0.77;;;24.80;56.60;;;;;;5054862;28;20442;-81
2022/02/19 04:33:37;;;;;;;1.40;0.97;;;24.70;56.50;;;;;;5055026;28;20442;-81
2022/02/19 04:36:04;;;;;;;1.30;1.10;;;24.80;56.60;;;;;;5054893;28;20449;-94
2022/02/19 04:38:31;;;;;;;2.33;1.37;;;24.80;56.60;;;;;;5055227;28;20525;-95
2022/02/19 04:40:59;;;;;;;1.20;1.10;;;24.70;56.50;;;;;;5054942;28;20982;-95
2022/02/19 04:43:26;;;;;;;1.20;0.90;;;24.70;56.50;;;;;;5054768;28;20466;-88
2022/02/19 04:45:53;;;;;;;2.67;1.27;;;24.70;56.50;;;;;;5054582;28;20485;-81
2022/02/19 04:48:20;;;;;;;1.73;0.80;;;24.80;56.50;;;;;;5054956;28;20798;-92
2022/02/19 04:50:47;;;;;;;1.63;1.20;;;24.80;56.60;;;;;;5054374;28;20928;-94
2022/02/19 04:53:13;;;;;;;1.50;1.10;;;24.80;56.50;;;;;;5055072;28;20453;-95
2022/02/19 04:55:40;;;;;;;1.67;0.90;;;24.70;56.40;;;;;;5054582;28;20465;-95
2022/02/19 04:58:08;;;;;;;1.50;0.90;;;24.80;56.50;;;;;;5054797;28;20441;-89
2022/02/19 05:00:35;;;;;;;1.60;0.97;;;24.80;56.40;;;;;;5054596;28;20434;-95
2022/02/19 05:03:02;;;;;;;2.50;1.20;;;24.80;56.40;;;;;;5054343;28;20929;-95
2022/02/19 05:05:28;;;;;;;2.07;1.20;;;24.80;56.30;;;;;;5054218;28;20482;-81
2022/02/19 05:07:55;;;;;;;1.80;1.10;;;24.70;56.40;;;;;;5054276;28;20457;-81
2022/02/19 05:10:22;;;;;;;1.90;1.20;;;24.80;56.40;;;;;;5054122;28;20441;-81
2022/02/19 05:12:50;;;;;;;1.20;0.87;;;24.80;56.30;;;;;;5054366;28;20441;-91
2022/02/19 05:15:19;;;;;;;1.27;1.00;;;24.80;56.30;;;;;;5054199;28;20960;-81
2022/02/19 05:17:47;;;;;;;1.50;0.87;;;24.80;56.30;;;;;;5054327;28;20440;-95
2022/02/19 05:20:14;;;;;;;1.20;1.00;;;24.80;56.20;;;;;;5054141;28;20445;-94
2022/02/19 05:22:41;;;;;;;2.40;1.37;;;24.80;56.20;;;;;;5054053;28;20437;-95
2022/02/19 05:25:09;;;;;;;1.30;1.03;;;24.80;56.10;;;;;;5054025;28;20442;-96
2022/02/19 05:27:35;;;;;;;1.57;1.17;;;24.80;56.20;;;;;;5053985;28;20442;-81
2022/02/19 05:30:02;;;;;;;1.57;1.10;;;24.70;56.20;;;;;;5053815;28;20442;-83
2022/02/19 05:32:30;;;;;;;1.60;1.10;;;24.70;56.20;;;;;;5053856;28;20936;-81
2022/02/19 05:34:57;;;;;;;1.83;1.07;;;24.80;56.20;;;;;;5053568;28;20875;-94
2022/02/19 05:37:24;;;;;;;1.13;0.80;;;24.80;56.10;;;;;;5053121;28;20936;-83
2022/02/19 05:39:51;;;;;;;1.70;1.20;;;24.80;56.10;;;;;;5053918;28;20943;-94
2022/02/19 05:42:17;;;;;;;1.67;1.20;;;24.80;56.10;;;;;;5053918;28;20442;-81
2022/02/19 05:44:44;;;;;;;1.30;1.00;;;24.70;56.00;;;;;;5053575;28;20466;-83
2022/02/19 05:47:11;;;;;;;1.50;1.10;;;24.80;56.00;;;;;;5053513;28;20481;-96
2022/02/19 05:49:39;;;;;;;1.20;1.00;;;24.90;56.10;;;;;;5053671;28;20441;-95
2022/02/19 05:52:06;;;;;;;1.20;0.90;;;24.80;55.90;;;;;;5053511;28;20446;-96
2022/02/19 05:54:33;;;;;;;1.40;1.10;;;24.80;56.00;;;;;;5053796;28;20473;-95
2022/02/19 05:57:00;;;;;;;1.60;0.83;;;24.70;56.00;;;;;;5053590;28;20442;-83
2022/02/19 05:59:26;;;;;;;1.77;1.00;;;24.80;55.90;;;;;;5053701;28;20799;-81
2022/02/19 06:01:53;;;;;;;1.67;1.00;;;24.80;55.80;;;;;;5053700;28;20777;-94
2022/02/19 06:04:20;;;;;;;1.20;0.97;;;24.80;55.90;;;;;;5053393;28;20445;-95
2022/02/19 06:06:48;;;;;;;1.00;0.80;;;24.80;55.90;;;;;;5053416;28;20494;-94
2022/02/19 06:09:15;;;;;;;1.83;1.20;;;24.80;55.80;;;;;;5053744;28;20444;-80
2022/02/19 06:11:42;;;;;;;2.10;1.43;;;24.80;55.90;;;;;;5053403;28;20444;-94
2022/02/19 06:14:09;;;;;;;1.80;1.10;;;24.80;55.90;;;;;;5053703;28;20450;-94
2022/02/19 06:16:36;;;;;;;1.73;1.10;;;24.80;55.80;;;;;;5053323;28;20441;-80
2022/02/19 06:19:03;;;;;;;1.43;1.10;;;24.90;55.80;;;;;;5053387;28;20434;-94
2022/02/19 06:21:30;;;;;;;1.63;0.83;;;24.90;55.80;;;;;;5053417;28;20463;-80
2022/02/19 06:23:58;;;;;;;2.70;1.10;;;24.90;55.80;;;;;;5053429;28;20446;-80
2022/02/19 06:26:25;;;;;;;1.33;1.10;;;24.90;55.80;;;;;;5053250;28;20485;-81
2022/02/19 06:28:51;;;;;;;2.20;1.20;;;24.90;55.70;;;;;;5053287;28;20916;-82
2022/02/19 06:31:18;;;;;;;1.63;1.00;;;24.90;55.80;;;;;;5053190;28;20446;-94
2022/02/19 06:33:45;;;;;;;1.27;0.90;;;24.90;55.80;;;;;;5053167;28;20438;-89
2022/02/19 06:36:12;;;;;;;1.40;1.00;;;24.90;56.30;;;;;;5053121;28;20963;-94
2022/02/19 06:38:41;;;;;;;1.67;0.90;;;24.90;55.70;;;;;;5053204;28;20437;-93
2022/02/19 06:41:10;;;;;;;1.30;0.90;;;24.90;55.70;;;;;;5053214;28;20836;-94
2022/02/19 06:43:37;;;;;;;2.43;1.10;;;24.90;55.60;;;;;;5053120;28;20454;-95
2022/02/19 06:46:05;;;;;;;1.50;1.20;;;24.90;55.70;;;;;;5053101;28;20477;-83
2022/02/19 06:48:31;;;;;;;1.63;1.17;;;24.90;55.70;;;;;;5056439;28;20445;-94
2022/02/19 06:50:58;;;;;;;1.40;1.20;;;24.90;55.70;;;;;;5057068;28;20846;-94
2022/02/19 06:53:26;;;;;;;2.00;1.30;;;24.90;55.70;;;;;;5057001;28;20452;-80
2022/02/19 06:55:52;;;;;;;1.20;0.80;;;24.90;55.60;;;;;;5056697;28;20484;-94
2022/02/19 06:58:21;;;;;;;1.30;1.00;;;25.00;55.60;;;;;;5056732;28;20809;-80
2022/02/19 07:00:51;;;;;;;1.30;0.90;;;25.00;55.60;;;;;;5056627;28;20453;-95
2022/02/19 07:03:19;;;;;;;1.13;0.80;;;25.00;55.60;;;;;;5056747;28;20448;-93
2022/02/19 07:05:51;;;;;;;1.57;1.00;;;25.00;55.50;;;;;;5056544;28;20473;-80
2022/02/19 07:08:18;;;;;;;1.40;1.00;;;25.00;55.50;;;;;;5056276;28;20473;-86
2022/02/19 07:10:45;;;;;;;1.47;1.00;;;25.00;55.50;;;;;;5056651;28;20442;-87
2022/02/19 07:13:11;;;;;;;1.23;0.80;;;25.00;55.40;;;;;;5053095;28;20781;-80
2022/02/19 07:15:40;;;;;;;1.27;0.93;;;25.10;56.10;;;;;;5056306;28;20448;-92
2022/02/19 07:18:06;;;;;;;1.30;1.10;;;25.10;55.40;;;;;;5056191;28;20784;-80
2022/02/19 07:20:37;;;;;;;1.90;1.30;;;25.20;55.40;;;;;;5056172;28;20445;-94
2022/02/19 07:23:03;;;;;;;1.40;1.00;;;25.10;55.40;;;;;;5056326;28;20859;-92
2022/02/19 07:25:30;;;;;;;1.50;0.83;;;25.10;55.40;;;;;;5056137;28;20798;-80
2022/02/19 07:27:57;;;;;;;1.60;0.90;;;25.10;55.30;;;;;;5056436;28;20955;-94
2022/02/19 07:30:24;;;;;;;1.73;1.00;;;25.20;55.30;;;;;;5056027;28;20438;-80
2022/02/19 07:32:52;;;;;;;2.30;0.83;;;25.20;55.30;;;;;;5055560;28;20442;-84
2022/02/19 07:35:20;;;;;;;1.50;0.90;;;25.20;55.30;;;;;;5055884;28;20853;-86
2022/02/19 07:37:47;;;;;;;1.10;0.90;;;25.30;54.00;;;;;;5055919;28;20449;-85
2022/02/19 07:40:14;;;;;;;1.40;1.17;;;25.30;53.80;;;;;;5055992;28;20452;-83
2022/02/19 07:42:41;;;;;;;2.33;1.20;;;25.30;53.90;;;;;;5056355;28;20450;-84
2022/02/19 07:45:09;;;;;;;1.50;1.00;;;25.30;53.90;;;;;;5055914;28;20462;-85
2022/02/19 07:47:36;;;;;;;5.93;1.83;;;25.30;53.60;;;;;;5055806;28;20485;-96
2022/02/19 07:58:20;;;;;;;1.40;1.20;;;25.20;54.80;;;;;;5069324;28;20523;-80
2022/02/19 08:00:47;;;;;;;1.73;1.30;;;25.20;54.60;;;;;;5068363;28;20442;-80
2022/02/19 08:03:15;;;;;;;1.53;1.20;;;25.20;54.60;;;;;;5066568;28;20549;-82
2022/02/19 08:05:43;;;;;;;2.80;0.97;;;25.20;54.60;;;;;;5067521;28;20438;-86
2022/02/19 08:08:11;;;;;;;2.17;1.10;;;25.20;54.60;;;;;;5058853;28;20449;-94
2022/02/19 08:10:38;;;;;;;1.47;1.17;;;25.20;54.00;;;;;;5064333;28;20798;-88
2022/02/19 08:13:07;;;;;;;1.60;1.00;;;25.30;54.80;;;;;;5062494;28;20525;-82
2022/02/19 08:15:35;;;;;;;1.30;1.00;;;25.20;54.70;;;;;;5063525;28;20468;-86
2022/02/19 08:18:02;;;;;;;4.60;1.40;;;25.20;55.00;;;;;;5059392;28;20449;-79
2022/02/19 08:20:28;;;;;;;2.13;1.20;;;25.20;55.00;;;;;;5045931;28;20442;-82
2022/02/19 08:22:56;;;;;;;2.80;1.30;;;25.20;55.20;;;;;;5052371;28;20917;-87
2022/02/19 08:25:23;;;;;;;3.27;1.40;;;25.20;55.20;;;;;;5061692;28;20438;-81
2022/02/19 08:27:50;;;;;;;2.07;1.30;;;25.30;54.70;;;;;;5068984;28;20492;-86
2022/02/19 08:30:17;;;;;;;3.57;1.37;;;25.20;54.90;;;;;;5070303;28;20452;-94
2022/02/19 08:32:44;;;;;;;4.03;1.50;;;25.20;55.10;;;;;;5069104;28;20434;-80
2022/02/19 08:35:11;;;;;;;1.30;1.00;;;25.20;55.10;;;;;;5058416;28;20437;-79
2022/02/19 08:37:37;;;;;;;2.83;1.10;;;25.20;55.20;;;;;;5060675;28;20437;-91
2022/02/19 08:40:09;;;;;;;3.57;1.20;;;25.20;55.30;;;;;;5064406;28;20449;-80
2022/02/19 08:42:36;;;;;;;2.30;1.10;;;25.20;55.20;;;;;;5065260;28;20430;-89
2022/02/19 08:45:02;;;;;;;5.73;1.13;;;25.30;55.30;;;;;;5066931;28;20485;-80
2022/02/19 08:47:30;;;;;;;2.10;1.20;;;25.30;55.20;;;;;;5065412;28;20461;-80
2022/02/19 08:49:56;;;;;;;3.27;1.13;;;25.30;55.10;;;;;;5069728;28;20459;-79
2022/02/19 08:52:23;;;;;;;2.43;1.27;;;25.30;55.20;;;;;;5064948;28;20448;-96
2022/02/19 08:54:50;;;;;;;3.10;1.23;;;25.50;54.80;;;;;;5064349;28;20469;-95
2022/02/19 08:57:18;;;;;;;1.93;1.30;;;25.80;54.80;;;;;;5065646;28;20425;-80
2022/02/19 08:59:45;;;;;;;2.37;1.37;;;26.30;54.10;;;;;;5062227;28;20444;-90
2022/02/19 09:02:12;;;;;;;3.30;1.10;;;26.80;53.60;;;;;;5063933;28;20440;-96
2022/02/19 09:04:38;;;;;;;2.67;1.20;;;27.40;53.10;;;;;;5063068;28;20962;-96
2022/02/19 09:07:05;;;;;;;1.70;1.30;;;27.90;52.70;;;;;;5061018;28;20481;-90
2022/02/19 09:09:36;;;;;;;2.73;1.00;;;28.40;52.40;;;;;;5061490;28;20448;-84
2022/02/19 09:12:04;;;;;;;3.50;1.20;;;28.90;51.90;;;;;;5060644;28;20441;-96
2022/02/19 09:14:32;;;;;;;1.87;1.20;;;29.50;52.00;;;;;;5055732;28;20454;-93
2022/02/19 09:16:58;;;;;;;5.57;1.20;;;29.90;50.70;;;;;;5054257;28;20935;-86
2022/02/19 09:19:28;;;;;;;4.07;1.10;;;29.70;50.90;;;;;;5054399;28;20940;-79
2022/02/19 09:21:54;;;;;;;2.37;1.13;;;29.50;51.20;;;;;;5053411;28;20808;-86
2022/02/19 09:24:21;;;;;;;2.83;1.17;;;29.30;51.50;;;;;;5054598;28;20446;-92
2022/02/19 09:26:48;;;;;;;2.47;1.27;;;29.20;51.80;;;;;;5053637;28;20931;-91
2022/02/19 09:29:15;;;;;;;3.23;2.13;;;29.00;52.00;;;;;;5053822;28;20456;-81
2022/02/19 09:31:43;;;;;;;2.17;1.07;;;29.20;52.10;;;;;;5053848;28;20450;-85
2022/02/19 09:34:10;;;;;;;2.47;1.27;;;29.30;51.90;;;;;;5053791;28;20438;-92
2022/02/19 09:36:37;;;;;;;3.00;1.20;;;29.20;51.60;;;;;;5053461;28;20446;-80
2022/02/19 09:39:05;;;;;;;3.60;1.33;;;29.10;51.90;;;;;;5053633;28;20442;-80
2022/02/19 09:41:32;;;;;;;2.03;0.90;;;28.90;51.50;;;;;;5054044;28;20437;-80
2022/02/19 09:44:01;;;;;;;2.50;0.80;;;28.70;52.20;;;;;;5053675;28;20461;-80
2022/02/19 09:46:31;;;;;;;3.03;1.10;;;28.60;52.50;;;;;;5054235;28;20481;-87
2022/02/19 09:48:59;;;;;;;1.80;1.00;;;28.60;52.50;;;;;;5054395;28;20448;-96
2022/02/19 09:51:27;;;;;;;2.57;1.40;;;28.70;52.50;;;;;;5054650;28;20925;-80
2022/02/19 09:53:54;;;;;;;1.53;1.17;;;28.70;52.40;;;;;;5057870;28;20454;-96
2022/02/19 09:56:24;;;;;;;1.77;1.10;;;28.70;52.40;;;;;;5057771;28;20480;-80
2022/02/19 09:58:50;;;;;;;2.37;1.40;;;28.70;52.50;;;;;;5057614;28;20438;-80
2022/02/19 10:01:18;;;;;;;1.83;1.10;;;28.50;52.50;;;;;;5053450;28;20536;-80
2022/02/19 10:03:46;;;;;;;1.90;1.10;;;28.40;52.60;;;;;;5053956;28;20438;-96
2022/02/19 10:06:15;;;;;;;2.53;1.50;;;28.40;52.80;;;;;;5052295;28;20433;-79
2022/02/19 10:08:42;;;;;;;1.80;1.23;;;28.40;52.80;;;;;;5053803;28;20441;-80
2022/02/19 10:11:14;;;;;;;1.60;1.07;;;28.40;52.90;;;;;;5053452;28;20438;-79
2022/02/19 10:13:41;;;;;;;3.03;1.27;;;28.50;52.70;;;;;;5053255;28;20495;-80
2022/02/19 10:16:09;;;;;;;14.40;1.33;;;28.60;52.70;;;;;;5053722;28;20514;-80
2022/02/19 10:18:39;;;;;;;1.57;0.90;;;28.90;52.60;;;;;;5054016;28;20441;-94
2022/02/19 10:21:17;;;;;;;1.60;1.13;;;29.30;52.30;;;;;;5053518;28;20445;-80
2022/02/19 10:23:47;;;;;;;2.00;1.20;;;29.50;52.00;;;;;;5057761;28;20437;-80
2022/02/19 10:26:15;;;;;;;2.37;1.10;;;29.30;52.00;;;;;;5058237;28;20441;-96
2022/02/19 10:28:59;;;;;;;2.00;1.13;;;29.20;52.10;;;;;;5059164;28;20492;-96
2022/02/19 10:31:26;;;;;;;1.30;0.97;;;29.20;52.20;;;;;;5058944;28;20444;-87
2022/02/19 10:34:05;;;;;;;1.50;1.30;;;29.30;52.00;;;;;;5058476;28;20437;-80
2022/02/19 10:36:42;;;;;;;1.93;1.10;;;29.40;51.80;;;;;;5057955;28;20442;-91
2022/02/19 10:39:09;;;;;;;1.53;1.27;;;29.50;52.40;;;;;;5058607;28;20437;-96
2022/02/19 10:41:37;;;;;;;1.70;1.17;;;29.40;51.80;;;;;;5058079;28;20924;-81
2022/02/19 10:44:21;;;;;;;1.37;0.90;;;29.40;51.80;;;;;;5058454;28;20535;-80
2022/02/19 10:46:47;;;;;;;2.03;1.23;;;29.30;51.80;;;;;;5057998;28;20473;-80
2022/02/19 10:49:14;;;;;;;1.67;1.03;;;29.20;52.60;;;;;;5057845;28;20449;-80
2022/02/19 10:51:43;;;;;;;1.80;1.00;;;29.10;52.20;;;;;;5057645;28;20437;-80
2022/02/19 10:54:11;;;;;;;2.60;1.10;;;29.00;52.40;;;;;;5057460;28;20955;-88
2022/02/19 10:56:41;;;;;;;2.27;1.00;;;29.00;52.50;;;;;;5058400;28;20445;-94
2022/02/19 10:59:09;;;;;;;3.13;1.60;;;29.00;52.60;;;;;;5057577;28;20985;-80
2022/02/19 11:01:40;;;;;;;2.17;1.20;;;29.00;52.60;;;;;;5057844;28;20453;-80
2022/02/19 11:04:08;;;;;;;1.60;1.10;;;29.00;52.60;;;;;;5058284;28;20946;-80
2022/02/19 11:06:35;;;;;;;1.60;1.23;;;29.00;52.70;;;;;;5056960;28;20789;-84
2022/02/19 11:09:06;;;;;;;1.70;1.20;;;29.00;52.80;;;;;;5057093;28;20442;-80
2022/02/19 11:11:34;;;;;;;1.60;1.00;;;29.00;52.90;;;;;;5057255;28;20441;-80
2022/02/19 11:14:03;;;;;;;1.83;1.10;;;28.90;52.90;;;;;;5056529;28;20465;-82
2022/02/19 11:16:30;;;;;;;2.00;1.30;;;28.90;52.90;;;;;;5056826;28;20446;-88
2022/02/19 11:18:57;;;;;;;1.30;0.97;;;28.90;53.00;;;;;;5057063;28;20441;-80
2022/02/19 11:21:25;;;;;;;1.80;1.20;;;29.00;53.10;;;;;;5056216;28;20449;-96
2022/02/19 11:23:54;;;;;;;2.23;1.30;;;28.90;53.10;;;;;;5056738;28;20453;-80
2022/02/19 11:26:23;;;;;;;1.40;1.23;;;28.80;53.20;;;;;;5056942;28;20909;-80
2022/02/19 11:28:52;;;;;;;1.60;1.37;;;28.80;53.30;;;;;;5056047;28;20975;-80
2022/02/19 11:31:20;;;;;;;2.63;1.10;;;28.70;53.30;;;;;;5055861;28;20446;-83
2022/02/19 11:33:50;;;;;;;3.60;1.63;;;28.60;51.40;;;;;;5054489;28;20437;-80
2022/02/19 11:36:25;;;;;;;2.60;0.90;;;28.50;51.70;;;;;;5055949;28;20457;-85
2022/02/19 11:38:53;;;;;;;1.63;1.17;;;28.50;52.40;;;;;;5055928;28;20449;-80
2022/02/19 11:41:35;;;;;;;1.97;1.20;;;28.50;52.70;;;;;;5054243;28;20480;-80
2022/02/19 11:44:03;;;;;;;4.17;1.43;;;28.50;52.80;;;;;;5054872;28;20466;-93
2022/02/19 11:46:34;;;;;;;1.33;0.87;;;28.40;52.90;;;;;;5044759;28;20430;-88
2022/02/19 11:49:17;;;;;;;1.30;1.10;;;28.30;53.00;;;;;;5043246;28;20569;-80
2022/02/19 11:51:45;;;;;;;1.80;1.10;;;28.30;53.10;;;;;;5042572;28;20784;-85
2022/02/19 11:54:25;;;;;;;2.47;1.27;;;28.20;53.20;;;;;;5036048;28;20438;-80
2022/02/19 11:56:54;;;;;;;1.97;1.00;;;28.10;53.30;;;;;;5046144;28;20502;-80
2022/02/19 11:59:23;;;;;;;2.80;1.20;;;28.10;53.40;;;;;;5043319;28;20458;-93
2022/02/19 12:02:14;;;;;;;1.60;1.20;;;28.00;53.50;;;;;;5037766;28;20497;-93
2022/02/19 12:04:41;;;;;;;3.40;1.17;;;28.00;54.20;;;;;;5046068;28;20441;-81
2022/02/19 12:07:14;;;;;;;2.00;1.10;;;27.90;53.70;;;;;;5049373;28;20442;-82
2022/02/19 12:10:02;;;;;;;2.50;1.13;;;27.90;53.80;;;;;;5044508;28;20517;-81
2022/02/19 12:12:51;;;;;;;2.07;1.03;;;27.90;53.90;;;;;;5045784;28;20430;-80
2022/02/19 12:15:28;;;;;;;1.83;1.23;;;27.90;54.00;;;;;;5045672;28;20964;-85
2022/02/19 12:17:55;;;;;;;1.30;0.93;;;27.90;54.10;;;;;;5044819;28;20434;-80
2022/02/19 12:20:30;;;;;;;2.00;1.10;;;27.80;54.00;;;;;;5037394;28;20431;-83
2022/02/19 12:23:01;;;;;;;3.30;1.10;;;27.90;52.40;;;;;;5035202;28;20469;-81
2022/02/19 12:26:03;;;;;;;1.33;0.80;;;27.80;52.00;;;;;;5035375;28;20442;-84
2022/02/19 12:28:32;;;;;;;2.20;1.33;;;27.70;52.90;;;;;;5044645;28;20555;-92
2022/02/19 12:31:31;;;;;;;1.10;0.70;;;27.60;53.10;;;;;;5040689;28;20435;-88
2022/02/19 12:33:59;;;;;;;3.33;1.13;;;27.50;52.40;;;;;;5007962;28;20441;-90
2022/02/19 12:36:26;;;;;;;1.80;1.30;;;27.50;52.30;;;;;;5054176;28;20434;-87
2022/02/19 12:38:54;;;;;;;1.70;1.00;;;27.50;51.30;;;;;;5045344;28;20493;-88
2022/02/19 12:41:22;;;;;;;8.73;1.20;;;27.40;51.20;;;;;;5043525;28;20442;-89
2022/02/19 12:44:13;;;;;;;1.93;1.20;;;27.40;51.60;;;;;;5043852;28;20849;-83
2022/02/19 12:46:42;;;;;;;3.23;1.30;;;27.40;52.50;;;;;;5047784;28;20442;-83
2022/02/19 12:49:10;;;;;;;2.50;1.10;;;27.30;53.40;;;;;;5046269;28;20492;-83
2022/02/19 12:51:37;;;;;;;2.03;0.80;;;27.40;53.60;;;;;;5042143;28;20443;-82
2022/02/19 12:54:05;;;;;;;1.80;1.20;;;27.40;53.70;;;;;;5044165;28;20936;-84
2022/02/19 12:56:40;;;;;;;1.50;1.10;;;27.40;53.60;;;;;;5047727;28;20952;-83
2022/02/19 12:59:09;;;;;;;1.63;0.97;;;27.50;53.70;;;;;;5046733;28;20825;-82
2022/02/19 13:01:36;;;;;;;1.57;1.00;;;27.50;53.80;;;;;;5046453;28;20426;-83